Adams, Nebraska
Current Conditions -  °F | °C
As of 2:55 AM on Wednesday 26 Nov 2014 (Local Time) from KBIE Reporting Station
Broken Clouds Broken Clouds  
Wind Chill: -2°   Ceiling: 3900
Heat Index:   Visibility: 10mi
Dew Point:   Wind: 10mph
Humidity: 85%   Direction: 280°W
Pressure: 29.91"   Gusts: NA
Location:  40.46°N, 96.51°W
Report Text: KBIE 260855Z AUTO 28009KT 10SM BKN039 02/00 A2991 RMK AO2 T00211002
Loading
Personal Weather Stations






























Interactive Weather Map New forecast layout! Learn more

10-Day Weather Forecast

Advertisements
Track Severe Weather on mobile